Impacts METAR Board INFO
IDs:

KLAS - Las Vegas/McCarran I, NV, US

Updated at: 2320 UTC 17 Dec 2017
Potential Impact None Slight Moderate High
Time17/11Z 17/12Z 17/13Z 17/14Z 17/15Z 17/16Z 17/17Z 17/18Z 17/19Z 17/20Z 17/21Z 17/22Z 17/23Z
VIS10 10 10 10 10 10 10 10 10 10 10 10 10
CIG120 120 -- -- -- -- -- -- -- -- -- -- --
CoverBKNBKNFEWFEWFEWCLRCLRCLRCLRCLRFEWFEWFEW
FltCatVFRVFRVFRVFRVFRVFRVFRVFRVFRVFRVFRVFRVFR
WX--------------------------
WDir3403503503403503403403503303403400340
WSpd15 18 17 18 18 19 24 18 14 10 8 6 12
WGst26 26 24 31 28 28 32 25 22 18 21 -- 17
Raw hourly METARs
KLAS 171056Z 34015G26KT 10SM SCT090 BKN120 11/M06 A2997 RMK AO2 PK WND 34027/1049 SLP142 T01061056
KLAS 171156Z 35018G26KT 10SM FEW090 BKN120 10/M06 A2998 RMK AO2 PK WND 33028/1058 SLP146 T01001061 10122 20100 51013
KLAS 171256Z 35017G24KT 10SM FEW120 09/M07 A3000 RMK AO2 PK WND 33027/1243 SLP153 T00891067
KLAS 171356Z 34018G31KT 10SM FEW120 09/M07 A3002 RMK AO2 PK WND 34031/1349 SLP160 T00891072
KLAS 171456Z 35018G28KT 10SM FEW120 08/M07 A3006 RMK AO2 PK WND 36029/1413 SLP173 T00831072 53024
KLAS 171556Z 34019G28KT 10SM CLR 09/M08 A3008 RMK AO2 PK WND 36032/1514 SLP182 T00891078
KLAS 171656Z 34024G32KT 10SM CLR 10/M08 A3010 RMK AO2 PK WND 33032/1655 SLP189 T01001078
KLAS 171756Z 35018G25KT 10SM CLR 11/M08 A3011 RMK AO2 PK WND 33029/1701 SLP193 T01061083 10106 20083 51019
KLAS 171856Z 33014G22KT 10SM CLR 11/M08 A3009 RMK AO2 SLP186 T01111083
KLAS 171956Z 34010G18KT 10SM CLR 12/M08 A3006 RMK AO2 SLP174 T01221078
KLAS 172056Z 34008G21KT 310V020 10SM FEW250 13/M08 A3005 RMK AO2 SLP169 T01281083 56022
KLAS 172156Z VRB06KT 10SM FEW250 13/M08 A3004 RMK AO2 SLP166 T01331083
KLAS 172256Z 34012G17KT 10SM FEW250 13/M08 A3004 RMK AO2 SLP168 T01331083